• Join FlightAware (Why Join?)
  • Login
  • US Flag 
03:58PM EDT


 

Airport Tracker/Info


-or-


 

Live Flight TrackerFlight Track Log ✈ N143DE ✈ 12-Oct-2013 ✈ KMCI - KRYY

Flight Track Log - Related Links

Times and Time Zones

All times are in EDT time to prevent confusion due to time zone crossing. See the N143DE flight status page for this flight to view local times or setup timezone preferences in your user account.

Time Position Orientation Groundspeed Altitude Reporting Facility
EDT Latitude Longitude Course Direction KTS MPH feet Rate Location/Type
06:15AM 39.3167 -94.7167 57° Northeast 126 145 1,800  Level Kansas City TRACON
06:16AM 39.3333 -94.6833 57° Northeast 149 171 4,100 2,100 Climbing Kansas City TRACON
06:17AM 39.3314 -94.6081 92° East 177 204 6,700 1,860 Climbing Kansas City Center
06:18AM 39.3053 -94.5561 123° Southeast 184 212 8,600 1,860 Climbing Kansas City Center
06:19AM 39.2939 -94.4900 103° East 195 224 10,500 1,920 Climbing Kansas City Center
06:20AM 39.2800 -94.4078 102° East 209 241 12,600 1,920 Climbing Kansas City Center
06:21AM 39.2672 -94.3364 96° East 214 246 14,400 1,800 Climbing Kansas City Center
06:22AM 39.2425 -94.2756 118° Southeast 199 229 16,200 1,620 Climbing Kansas City Center
06:23AM 39.2169 -94.2172 119° Southeast 194 223 17,700 1,500 Climbing Kansas City Center
06:24AM 39.1881 -94.1492 119° Southeast 194 223 19,300 1,380 Climbing Kansas City Center
06:25AM 39.1644 -94.0892 117° Southeast 197 227 20,600 1,200 Climbing Kansas City Center
06:26AM 39.1392 -94.0319 120° Southeast 194 223 21,800 1,200 Climbing Kansas City Center
06:27AM 39.1083 -93.9692 122° Southeast 186 214 23,100 1,080 Climbing Kansas City Center
06:28AM 39.0800 -93.9167 125° Southeast 185 213 24,000 720 Climbing Kansas City Center
06:29AM 39.0500 -93.8597 124° Southeast 200 230 24,600 480 Climbing Kansas City Center
06:30AM 39.0178 -93.7983 124° Southeast 215 247 25,000 240 Climbing Kansas City Center
06:31AM 38.9825 -93.7247 122° Southeast 243 280 25,100  Climbing Kansas City Center
06:32AM 38.9469 -93.6433 119° Southeast 258 297 25,000 -60 Descending Kansas City Center
06:33AM 38.9106 -93.5614 120° Southeast 263 303 25,000  Level Kansas City Center
06:34AM 38.8703 -93.4811 123° Southeast 265 305 25,000  Level Kansas City Center
06:35AM 38.8344 -93.3972 119° Southeast 266 306 25,000  Level Kansas City Center
06:36AM 38.7947 -93.3164 122° Southeast 267 307 25,000  Level Kansas City Center
06:37AM 38.7533 -93.2350 123° Southeast 270 311 25,000  Level Kansas City Center
06:38AM 38.7111 -93.1547 124° Southeast 271 312 25,000  Level Kansas City Center
06:39AM 38.6717 -93.0692 121° Southeast 276 318 25,000  Level Kansas City Center
06:40AM 38.6350 -92.9825 118° Southeast 277 319 25,000  Level Kansas City Center
06:41AM 38.5947 -92.8986 122° Southeast 276 318 25,000  Level Kansas City Center
06:42AM 38.5531 -92.8161 123° Southeast 276 318 25,000  Level Kansas City Center
06:43AM 38.5111 -92.7339 123° Southeast 276 318 25,000  Level Kansas City Center
06:44AM 38.4700 -92.6497 122° Southeast 277 319 25,000  Level Kansas City Center
06:45AM 38.4303 -92.5656 121° Southeast 277 319 25,000  Level Kansas City Center
06:46AM 38.3900 -92.4811 121° Southeast 276 318 25,000  Level Kansas City Center
06:47AM 38.3506 -92.3992 122° Southeast 273 314 25,000  Level Kansas City Center
06:48AM 38.3108 -92.3172 122° Southeast 269 310 25,000  Level Kansas City Center
06:49AM 38.2708 -92.2361 122° Southeast 269 310 25,000  Level Kansas City Center
06:50AM 38.2300 -92.1556 123° Southeast 269 310 25,000  Level Kansas City Center
06:51AM 38.1881 -92.0736 123° Southeast 271 312 25,000  Level Kansas City Center
06:53AM 38.1489 -91.9903 121° Southeast 272 313 25,000  Level Kansas City Center
06:54AM 38.1067 -91.9092 123° Southeast 273 314 25,000  Level Kansas City Center
06:54AM 38.0664 -91.8250 121° Southeast 275 316 25,000  Level Kansas City Center
06:55AM 38.0253 -91.7436 123° Southeast 274 315 25,000  Level Kansas City Center
06:56AM 37.9853 -91.6642 123° Southeast 269 310 25,000  Level Kansas City Center
06:57AM 37.9447 -91.5847 123° Southeast 267 307 25,000  Level Kansas City Center
06:58AM 37.9047 -91.5056 123° Southeast 267 307 25,000  Level Kansas City Center
06:59AM 37.8647 -91.4244 122° Southeast 269 310 25,000  Level Kansas City Center
07:00AM 37.8231 -91.3436 123° Southeast 272 313 25,000  Level Kansas City Center
07:02AM 37.7808 -91.2617 123° Southeast 274 315 25,000  Level Kansas City Center
07:03AM 37.7392 -91.1819 123° Southeast 273 314 25,000  Level Kansas City Center
07:04AM 37.6975 -91.1017 123° Southeast 273 314 25,000  Level Kansas City Center
07:05AM 37.6656 -91.0389 123° Southeast 271 312 25,000  Level Kansas City Center
07:06AM 37.6161 -90.9417 123° Southeast 271 312 25,000  Level Kansas City Center
07:07AM 37.5747 -90.8594 122° Southeast 274 315 25,000  Level Kansas City Center
07:08AM 37.5328 -90.7778 123° Southeast 275 316 25,000  Level Kansas City Center
07:09AM 37.4914 -90.6989 123° Southeast 277 319 25,000  Level Kansas City Center
07:10AM 37.4500 -90.6167 122° Southeast 278 320 25,000  Level Kansas City Center
07:11AM 37.4086 -90.5367 123° Southeast 277 319 25,000  Level Kansas City Center
07:12AM 37.3669 -90.4572 123° Southeast 276 318 25,000  Level Kansas City Center
07:13AM 37.3244 -90.3786 124° Southeast 272 313 25,000  Level Kansas City Center
07:14AM 37.2828 -90.2969 123° Southeast 274 315 25,000  Level Kansas City Center
07:15AM 37.2403 -90.2181 124° Southeast 274 315 25,000  Level Kansas City Center
07:16AM 37.1986 -90.1367 123° Southeast 275 316 25,000  Level Kansas City Center
07:17AM 37.1556 -90.0550 123° Southeast 280 322 25,000  Level Kansas City Center
07:18AM 37.1139 -89.9775 124° Southeast 273 314 25,000  Level Kansas City Center
07:18AM 37.0875 -89.9278 124° Southeast 279 321 25,000  Level Memphis Center
07:19AM 37.0456 -89.8500 124° Southeast 279 321 25,000  Level Memphis Center
07:20AM 37.0014 -89.7697 125° Southeast 279 321 25,000  Level Memphis Center
07:21AM 36.9592 -89.6869 123° Southeast 284 327 25,000  Level Memphis Center
07:22AM 36.9192 -89.6094 123° Southeast 284 327 25,000  Level Memphis Center
07:23AM 36.8750 -89.5294 125° Southeast 284 327 25,000  Level Memphis Center
07:24AM 36.8328 -89.4497 123° Southeast 284 327 25,000  Level Memphis Center
07:25AM 36.7903 -89.3725 124° Southeast 284 327 25,000  Level Memphis Center
07:26AM 36.7481 -89.2928 123° Southeast 279 321 25,000  Level Memphis Center
07:27AM 36.7078 -89.2156 123° Southeast 279 321 25,000  Level Memphis Center
07:28AM 36.6633 -89.1333 124° Southeast 279 321 25,000  Level Memphis Center
07:29AM 36.6208 -89.0564 125° Southeast 279 321 25,000  Level Memphis Center
07:30AM 36.5783 -88.9772 124° Southeast 279 321 25,000  Level Memphis Center
07:31AM 36.5336 -88.8953 124° Southeast 284 327 25,000  Level Memphis Center
07:32AM 36.4908 -88.8186 125° Southeast 284 327 25,000  Level Memphis Center
07:33AM 36.4525 -88.7444 123° Southeast 284 327 25,000  Level Memphis Center
07:34AM 36.4075 -88.6656 125° Southeast 284 327 25,000  Level Memphis Center
07:35AM 36.3628 -88.5839 124° Southeast 284 327 25,000  Level Memphis Center
07:36AM 36.3178 -88.5050 125° Southeast 284 327 25,000  Level Memphis Center
07:37AM 36.2728 -88.4264 125° Southeast 284 327 25,000  Level Memphis Center
07:38AM 36.2297 -88.3450 123° Southeast 284 327 25,000  Level Memphis Center
07:39AM 36.1847 -88.2639 124° Southeast 284 327 25,000  Level Memphis Center
07:40AM 36.1394 -88.1828 125° Southeast 284 327 25,000  Level Memphis Center
07:41AM 36.0922 -88.1017 126° Southeast 284 327 25,000  Level Memphis Center
07:42AM 36.0469 -88.0208 125° Southeast 284 327 25,000  Level Memphis Center
07:43AM 36.0017 -87.9400 125° Southeast 284 327 25,000  Level Memphis Center
07:44AM 35.9561 -87.8594 125° Southeast 284 327 25,000  Level Memphis Center
07:45AM 35.9106 -87.7761 124° Southeast 284 327 25,000  Level Memphis Center
07:46AM 35.8653 -87.6956 125° Southeast 284 327 25,000  Level Memphis Center
07:47AM 35.8175 -87.6128 125° Southeast 284 327 25,000  Level Memphis Center
07:48AM 35.7675 -87.5247 125° Southeast 284 327 25,000  Level Memphis Center
07:49AM 35.7197 -87.4419 125° Southeast 284 327 25,000  Level Memphis Center
07:50AM 35.6719 -87.3619 126° Southeast 284 327 25,000  Level Memphis Center
07:51AM 35.6261 -87.2794 124° Southeast 284 327 25,000  Level Memphis Center
07:52AM 35.5803 -87.1994 125° Southeast 284 327 25,000  Level Memphis Center
07:54AM 35.5097 -87.0772 125° Southeast 294 338 25,000  Level Atlanta Center
07:55AM 35.4636 -86.9967 125° Southeast 294 338 25,000  Level Atlanta Center
07:56AM 35.4197 -86.9158 124° Southeast 294 338 25,000  Level Atlanta Center
07:57AM 35.3717 -86.8328 125° Southeast 294 338 25,000  Level Atlanta Center
07:58AM 35.3233 -86.7522 126° Southeast 294 338 25,000  Level Atlanta Center
07:59AM 35.2769 -86.6719 125° Southeast 294 338 25,000  Level Atlanta Center
08:00AM 35.2308 -86.5917 125° Southeast 294 338 25,000  Level Atlanta Center
08:01AM 35.1844 -86.5114 125° Southeast 294 338 25,000  Level Atlanta Center
08:02AM 35.1358 -86.4311 127° Southeast 294 338 25,000  Level Atlanta Center
08:03AM 35.0914 -86.3539 125° Southeast 294 338 25,000  Level Atlanta Center
08:04AM 35.0450 -86.2739 125° Southeast 294 338 25,000 -180 Level Atlanta Center
08:05AM 34.9961 -86.1964 128° Southeast 294 338 24,700 -540 Descending Atlanta Center
08:06AM 34.9475 -86.1167 127° Southeast 294 338 24,000 -780 Descending Atlanta Center
08:07AM 34.9008 -86.0319 124° Southeast 294 338 23,200 -1,380 Descending Atlanta Center
08:08AM 34.8500 -85.9472 126° Southeast 294 338 21,300 -1,140 Descending Atlanta Center
08:09AM 34.8139 -85.8603 117° Southeast 294 338 21,000 -180 Descending Atlanta Center
08:10AM 34.7858 -85.7814 113° Southeast 273 314 21,000 -300 Level Atlanta Center
08:11AM 34.7556 -85.6972 114° Southeast 260 299 20,400 -960 Descending Atlanta Center
08:12AM 34.7256 -85.6108 113° Southeast 265 305 19,100 -1,320 Descending Atlanta Center
08:13AM 34.6933 -85.5192 113° Southeast 277 319 17,800 -1,200 Descending Atlanta Center
08:14AM 34.6631 -85.4328 113° Southeast 282 325 16,800 -1,200 Descending Atlanta Center
08:15AM 34.6306 -85.3464 115° Southeast 276 318 15,500 -1,260 Descending Atlanta Center
08:16AM 34.6000 -85.2603 113° Southeast 276 318 14,300 -1,200 Descending Atlanta Center
08:17AM 34.5592 -85.1789 121° Southeast 276 318 13,200 -1,260 Descending Atlanta Center
08:18AM 34.4886 -85.1225 147° Southeast 281 323 11,800 -1,380 Descending Atlanta Center
08:19AM 34.4286 -85.0664 142° Southeast 281 323 10,500 -1,200 Descending Atlanta Center
08:20AM 34.3706 -85.0128 143° Southeast 271 312 9,400 -960 Descending Atlanta Center
08:21AM 34.3189 -84.9694 145° Southeast 251 289 8,600 -720 Descending Atlanta Center
08:22AM 34.2650 -84.9236 145° Southeast 236 272 8,000 -300 Descending Atlanta Center
08:23AM 34.2172 -84.8803 143° Southeast 230 265 8,000 -120 Level Atlanta Center
08:24AM 34.1717 -84.8322 139° Southeast 219 252 7,800 -840 Descending Atlanta Center
08:25AM 34.1447 -84.7692 117° Southeast 207 238 6,400 -1,320 Descending Atlanta Center
08:26AM 34.1222 -84.7139 116° Southeast 213 245 5,200 -1,200 Descending Atlanta Center
08:27AM 34.0975 -84.6533 116° Southeast 202 232 4,000 -960 Descending Atlanta Center
08:28AM 34.0747 -84.6056 120° Southeast 183 211 3,300 -600 Descending Atlanta Center
08:29AM 34.0478 -84.5628 127° Southeast 163 188 2,800 -900 Descending Atlanta Center
08:30AM 34.0164 -84.5625 180° South 111 128 1,500 -1,320 Descending Atlanta Center
08:32AM 34.0132 -84.5971 165° South  Level Estimated
08:39AM 34.0132 -84.5971 346° North  Level Estimated